createdAt,value
2023-10-20T00:00:07.378Z,10.80
2023-10-20T00:03:10.817Z,10.83
2023-10-20T00:06:13.673Z,10.84
2023-10-20T00:09:16.046Z,10.80
2023-10-20T00:12:18.508Z,10.80
2023-10-20T00:15:21.843Z,10.95
2023-10-20T00:18:24.526Z,11.04
2023-10-20T00:21:26.922Z,11.24
2023-10-20T00:24:29.333Z,11.44
2023-10-20T00:27:31.801Z,11.58
2023-10-20T00:30:34.151Z,11.79
2023-10-20T00:33:36.472Z,11.70
2023-10-20T00:36:39.762Z,11.61
2023-10-20T00:39:42.591Z,11.53
2023-10-20T00:42:45.309Z,11.45
2023-10-20T00:45:49.000Z,11.44
2023-10-20T00:48:51.564Z,11.40
2023-10-20T00:51:54.216Z,11.44
2023-10-20T00:54:57.083Z,11.42
2023-10-20T00:58:00.357Z,11.45
2023-10-20T01:01:05.295Z,11.43
2023-10-20T01:04:08.068Z,11.49
2023-10-20T01:07:10.541Z,11.42
2023-10-20T01:10:12.991Z,11.34
2023-10-20T01:13:16.240Z,11.38
2023-10-20T01:16:19.957Z,11.36
2023-10-20T01:19:22.464Z,11.33
2023-10-20T01:22:24.833Z,11.27
2023-10-20T01:25:28.493Z,11.34
2023-10-20T01:28:30.962Z,11.43
2023-10-20T01:31:33.374Z,11.44
2023-10-20T01:34:36.591Z,11.62
2023-10-20T01:37:39.088Z,11.53
2023-10-20T01:40:41.465Z,11.46
2023-10-20T01:43:43.802Z,11.56
2023-10-20T01:46:50.974Z,11.63
2023-10-20T01:49:53.419Z,11.65
2023-10-20T01:52:55.972Z,11.51
2023-10-20T01:55:58.552Z,11.57
2023-10-20T01:59:01.978Z,11.53
2023-10-20T02:02:05.458Z,11.52
2023-10-20T02:05:09.645Z,11.61
2023-10-20T02:08:12.197Z,11.59
2023-10-20T02:11:14.840Z,11.73
2023-10-20T02:14:17.372Z,11.63
2023-10-20T02:17:20.631Z,11.75
2023-10-20T02:20:24.879Z,11.74
2023-10-20T02:23:28.187Z,11.80
2023-10-20T02:26:30.682Z,11.99
2023-10-20T02:29:34.599Z,11.95
2023-10-20T02:32:37.151Z,11.95
2023-10-20T02:35:42.747Z,12.00
2023-10-20T02:38:45.427Z,12.01
2023-10-20T02:41:47.823Z,12.04
2023-10-20T02:44:50.204Z,12.23
2023-10-20T02:47:52.733Z,12.32
2023-10-20T02:50:55.154Z,12.37
2023-10-20T02:53:57.548Z,12.51
2023-10-20T02:56:59.982Z,12.58
2023-10-20T03:00:02.319Z,12.42
2023-10-20T03:03:05.075Z,12.48
2023-10-20T03:06:10.568Z,12.48
2023-10-20T03:09:14.778Z,12.54
2023-10-20T03:12:17.294Z,12.51
2023-10-20T03:15:19.812Z,12.43
2023-10-20T03:18:22.357Z,12.41
2023-10-20T03:21:24.931Z,12.16
2023-10-20T03:24:27.304Z,12.02
2023-10-20T03:27:31.003Z,11.94
2023-10-20T03:30:43.464Z,11.95
2023-10-20T03:33:45.889Z,12.20
2023-10-20T03:36:48.322Z,12.09
2023-10-20T03:39:51.850Z,12.07
2023-10-20T03:42:54.244Z,12.27
2023-10-20T03:45:57.977Z,12.38
2023-10-20T03:49:00.777Z,12.39
2023-10-20T03:52:04.150Z,12.26
2023-10-20T03:55:09.826Z,12.25
2023-10-20T03:58:12.642Z,12.20
2023-10-20T04:01:15.351Z,12.20
2023-10-20T04:04:18.698Z,12.16
2023-10-20T04:07:21.096Z,12.20
2023-10-20T04:10:24.309Z,12.31
2023-10-20T04:13:27.325Z,12.39
2023-10-20T04:16:30.401Z,12.47
2023-10-20T04:19:33.970Z,12.42
2023-10-20T04:22:40.120Z,12.40
2023-10-20T04:25:53.757Z,12.45
2023-10-20T04:29:14.254Z,12.46
2023-10-20T04:32:49.107Z,12.40
2023-10-20T04:36:10.890Z,12.39
2023-10-20T04:39:31.602Z,12.46
2023-10-20T04:42:36.557Z,12.36
2023-10-20T04:45:47.961Z,12.31
2023-10-20T04:48:59.026Z,12.32
2023-10-20T04:52:39.172Z,12.33
2023-10-20T04:56:16.587Z,12.44
2023-10-20T04:59:24.285Z,12.41
2023-10-20T05:02:40.838Z,12.42
2023-10-20T05:05:55.149Z,12.51
2023-10-20T05:08:57.620Z,12.50
2023-10-20T05:12:00.134Z,12.56
2023-10-20T05:15:02.496Z,12.76
2023-10-20T05:18:05.251Z,12.88
2023-10-20T05:21:13.476Z,12.88
2023-10-20T05:24:15.998Z,12.90
2023-10-20T05:27:18.338Z,12.93
2023-10-20T05:30:20.725Z,12.91
2023-10-20T05:33:23.134Z,12.95
2023-10-20T05:36:25.637Z,13.23
2023-10-20T05:39:27.988Z,13.34
2023-10-20T05:42:30.832Z,13.53
2023-10-20T05:45:41.137Z,13.68
2023-10-20T05:48:43.941Z,13.75
2023-10-20T05:51:46.551Z,13.90
2023-10-20T05:54:49.022Z,13.97
2023-10-20T05:57:51.369Z,13.86
2023-10-20T06:01:02.895Z,13.80
2023-10-20T06:04:05.872Z,13.91
2023-10-20T06:07:08.370Z,13.94
2023-10-20T06:10:15.223Z,13.92
2023-10-20T06:13:17.705Z,14.12
2023-10-20T06:16:21.514Z,14.20
2023-10-20T06:19:24.961Z,14.31
2023-10-20T06:22:27.961Z,14.30
2023-10-20T06:25:32.489Z,14.24
2023-10-20T06:28:35.214Z,14.11
2023-10-20T06:31:43.524Z,14.12
2023-10-20T06:34:47.630Z,14.07
2023-10-20T06:38:12.832Z,14.05
2023-10-20T06:41:15.484Z,14.07
2023-10-20T06:44:18.106Z,14.15
2023-10-20T06:47:21.730Z,14.09
2023-10-20T06:50:24.357Z,14.18
2023-10-20T06:53:26.756Z,14.25
2023-10-20T06:56:29.309Z,14.22
2023-10-20T06:59:31.818Z,14.32
2023-10-20T07:02:34.351Z,14.37
2023-10-20T07:05:38.918Z,14.50
2023-10-20T07:08:41.601Z,14.68
2023-10-20T07:11:44.508Z,14.83
2023-10-20T07:14:47.032Z,15.03
2023-10-20T07:17:50.024Z,15.21
2023-10-20T07:20:56.065Z,15.34
2023-10-20T07:24:00.052Z,15.33
2023-10-20T07:27:06.927Z,15.35
2023-10-20T07:30:12.014Z,15.40
2023-10-20T07:33:14.746Z,15.43
2023-10-20T07:36:17.853Z,15.88
2023-10-20T07:39:20.367Z,15.88
2023-10-20T07:42:23.170Z,15.80
2023-10-20T07:45:26.789Z,15.96
2023-10-20T07:48:29.589Z,15.97
2023-10-20T07:51:34.297Z,15.89
2023-10-20T07:54:36.899Z,15.84
2023-10-20T07:57:39.259Z,15.95
2023-10-20T08:00:41.625Z,15.92
2023-10-20T08:03:49.211Z,15.93
2023-10-20T08:06:52.164Z,15.94
2023-10-20T08:09:54.655Z,16.18
2023-10-20T08:12:57.355Z,16.39
2023-10-20T08:16:02.342Z,16.71
2023-10-20T08:19:04.862Z,16.64
2023-10-20T08:22:07.220Z,16.68
2023-10-20T08:25:10.219Z,16.80
2023-10-20T08:28:12.790Z,17.07
2023-10-20T08:31:15.686Z,17.24
2023-10-20T08:34:18.185Z,17.36
2023-10-20T08:37:20.912Z,17.83
2023-10-20T08:40:23.305Z,18.85
2023-10-20T08:43:27.010Z,19.06
2023-10-20T08:46:29.418Z,18.71
2023-10-20T08:49:31.947Z,18.28
2023-10-20T08:52:35.905Z,18.03
2023-10-20T08:55:38.677Z,17.73
2023-10-20T08:58:46.632Z,17.46
2023-10-20T09:01:49.214Z,17.47
2023-10-20T09:04:52.728Z,17.27
2023-10-20T09:07:56.382Z,17.11
2023-10-20T09:10:58.862Z,16.98
2023-10-20T09:14:02.266Z,16.76
2023-10-20T09:17:05.247Z,16.79
2023-10-20T09:20:12.658Z,16.65
2023-10-20T09:23:15.172Z,16.64
2023-10-20T09:26:17.592Z,16.87
2023-10-20T09:29:22.653Z,16.99
2023-10-20T09:32:25.235Z,17.03
2023-10-20T09:35:27.865Z,17.19
2023-10-20T09:38:33.234Z,17.46
2023-10-20T09:41:43.924Z,17.59
2023-10-20T09:44:52.571Z,18.16
2023-10-20T09:48:01.722Z,19.66
2023-10-20T09:51:05.798Z,21.34
2023-10-20T09:54:08.333Z,22.06
2023-10-20T09:57:14.086Z,22.35
2023-10-20T10:00:20.455Z,23.83
2023-10-20T10:03:39.366Z,24.31
2023-10-20T10:06:46.868Z,24.22
2023-10-20T10:09:53.455Z,25.00
2023-10-20T10:13:03.593Z,25.93
2023-10-20T10:16:15.344Z,25.96
2023-10-20T10:19:19.122Z,23.78
2023-10-20T10:22:29.426Z,22.28
2023-10-20T10:25:40.621Z,21.92
2023-10-20T10:28:50.112Z,21.62
2023-10-20T10:32:06.809Z,21.35
2023-10-20T10:35:16.989Z,21.05
2023-10-20T10:38:21.434Z,20.93
2023-10-20T10:41:24.808Z,20.93
2023-10-20T10:44:27.437Z,20.78
2023-10-20T10:47:29.867Z,20.74
2023-10-20T10:50:33.968Z,20.65
2023-10-20T10:53:36.419Z,20.74
2023-10-20T10:56:38.841Z,20.69
2023-10-20T10:59:41.574Z,20.65
2023-10-20T11:02:45.617Z,20.51
2023-10-20T11:05:48.810Z,20.81
2023-10-20T11:08:52.804Z,21.07
2023-10-20T11:11:55.215Z,20.85
2023-10-20T11:15:00.278Z,20.84
2023-10-20T11:18:04.211Z,20.97
2023-10-20T11:21:07.073Z,21.06
2023-10-20T11:24:10.144Z,21.11
2023-10-20T11:27:13.994Z,21.30
2023-10-20T11:30:16.584Z,21.23
2023-10-20T11:33:20.339Z,20.87
2023-10-20T11:36:22.793Z,20.90
2023-10-20T11:39:28.440Z,20.90
2023-10-20T11:42:30.842Z,20.68
2023-10-20T11:45:33.253Z,20.72
2023-10-20T11:48:35.714Z,20.79
2023-10-20T11:51:39.982Z,20.47
2023-10-20T11:54:42.541Z,20.63
2023-10-20T11:57:44.935Z,20.68
2023-10-20T12:00:47.451Z,20.63
2023-10-20T12:03:49.949Z,20.77
2023-10-20T12:06:53.591Z,20.54
2023-10-20T12:09:55.992Z,20.52
2023-10-20T12:13:03.419Z,20.55
2023-10-20T12:16:06.525Z,20.46
2023-10-20T12:19:09.036Z,20.42
2023-10-20T12:22:11.389Z,20.38
2023-10-20T12:25:13.772Z,20.45
2023-10-20T12:28:17.935Z,20.52
2023-10-20T12:31:20.427Z,20.59
2023-10-20T12:34:22.881Z,20.91
2023-10-20T12:37:25.201Z,21.27
2023-10-20T12:40:27.583Z,21.64
2023-10-20T12:43:30.027Z,21.56
2023-10-20T12:46:32.470Z,21.51
2023-10-20T12:49:34.924Z,21.48
2023-10-20T12:52:37.817Z,21.21
2023-10-20T12:55:40.655Z,21.44
2023-10-20T12:58:42.978Z,21.51
2023-10-20T13:01:45.372Z,21.86
2023-10-20T13:04:48.042Z,23.80
2023-10-20T13:07:54.477Z,24.03
2023-10-20T13:10:57.364Z,24.13
2023-10-20T13:14:00.178Z,23.77
2023-10-20T13:17:02.553Z,22.99
2023-10-20T13:20:07.155Z,22.70
2023-10-20T13:23:09.680Z,22.42
2023-10-20T13:26:12.169Z,22.16
2023-10-20T13:29:14.536Z,21.93
2023-10-20T13:32:16.935Z,21.72
2023-10-20T13:35:19.830Z,21.51
2023-10-20T13:38:32.674Z,21.37
2023-10-20T13:41:35.367Z,21.15
2023-10-20T13:44:37.895Z,21.11
2023-10-20T13:47:40.497Z,21.04
2023-10-20T13:50:42.992Z,21.21
2023-10-20T13:53:45.752Z,21.07
2023-10-20T13:56:48.237Z,21.02
2023-10-20T13:59:50.721Z,21.03
2023-10-20T14:02:54.784Z,20.94
2023-10-20T14:05:57.651Z,21.06
2023-10-20T14:09:01.026Z,21.05
2023-10-20T14:12:03.574Z,21.11
2023-10-20T14:15:06.507Z,21.05
2023-10-20T14:18:08.940Z,21.08
2023-10-20T14:21:11.433Z,21.11
2023-10-20T14:24:13.840Z,20.92
2023-10-20T14:27:16.192Z,20.94
2023-10-20T14:30:18.530Z,20.79
2023-10-20T14:33:21.157Z,20.76
2023-10-20T14:36:24.020Z,20.78
2023-10-20T14:39:26.430Z,20.82
2023-10-20T14:42:28.788Z,20.79
2023-10-20T14:45:31.257Z,20.79
2023-10-20T14:48:34.701Z,20.71
2023-10-20T14:51:37.199Z,20.77
2023-10-20T14:54:40.345Z,20.69
2023-10-20T14:57:42.824Z,20.79
2023-10-20T15:00:46.474Z,20.61
2023-10-20T15:03:48.970Z,20.56
2023-10-20T15:06:51.422Z,20.54
2023-10-20T15:09:55.278Z,20.65
2023-10-20T15:12:57.674Z,20.63
2023-10-20T15:16:05.944Z,20.64
2023-10-20T15:19:08.733Z,20.66
2023-10-20T15:22:11.286Z,20.61
2023-10-20T15:25:13.651Z,20.58
2023-10-20T15:28:16.219Z,20.63
2023-10-20T15:31:18.639Z,20.66
2023-10-20T15:34:21.066Z,20.64
2023-10-20T15:37:26.087Z,20.63
2023-10-20T15:40:28.876Z,20.45
2023-10-20T15:43:31.742Z,20.42
2023-10-20T15:46:36.080Z,20.41
2023-10-20T15:49:38.412Z,20.61
2023-10-20T15:52:40.731Z,20.75
2023-10-20T15:55:44.689Z,20.80
2023-10-20T15:58:48.912Z,20.78
2023-10-20T16:01:51.413Z,20.73
2023-10-20T16:04:54.327Z,20.78
2023-10-20T16:07:56.884Z,20.79
2023-10-20T16:10:59.275Z,20.81
2023-10-20T16:14:01.702Z,20.81
2023-10-20T16:17:04.191Z,20.68
2023-10-20T16:20:07.295Z,20.70
2023-10-20T16:23:09.964Z,20.77
2023-10-20T16:26:12.470Z,20.81
2023-10-20T16:29:14.893Z,20.77
2023-10-20T16:32:17.418Z,20.78
2023-10-20T16:35:19.752Z,20.75
2023-10-20T16:38:22.292Z,20.74
2023-10-20T16:41:25.945Z,20.93
2023-10-20T16:44:28.591Z,21.08
2023-10-20T16:47:31.150Z,21.27
2023-10-20T16:50:33.612Z,21.47
2023-10-20T16:53:36.570Z,21.44
2023-10-20T16:56:39.363Z,21.43
2023-10-20T16:59:41.835Z,21.39
2023-10-20T17:02:45.478Z,21.36
2023-10-20T17:05:48.088Z,21.37
2023-10-20T17:08:51.192Z,21.40
2023-10-20T17:11:53.620Z,21.33
2023-10-20T17:14:55.964Z,21.37
2023-10-20T17:17:58.469Z,21.39
2023-10-20T17:21:04.685Z,21.43
2023-10-20T17:24:09.328Z,21.25
2023-10-20T17:27:11.786Z,21.15
2023-10-20T17:30:14.258Z,21.12
2023-10-20T17:33:17.961Z,21.15
2023-10-20T17:36:20.407Z,21.10
2023-10-20T17:39:23.402Z,21.25
2023-10-20T17:42:25.858Z,21.03
2023-10-20T17:45:28.323Z,20.83
2023-10-20T17:48:30.976Z,20.50
2023-10-20T17:51:33.707Z,20.25
2023-10-20T17:54:36.048Z,20.17
2023-10-20T17:57:38.612Z,20.38
2023-10-20T18:00:42.156Z,20.43
2023-10-20T18:03:44.862Z,20.41
2023-10-20T18:06:47.740Z,20.44
2023-10-20T18:09:50.603Z,20.61
2023-10-20T18:12:52.979Z,20.53
2023-10-20T18:15:55.579Z,20.83
2023-10-20T18:18:58.142Z,21.18
2023-10-20T18:22:00.742Z,21.17
2023-10-20T18:25:04.250Z,21.24
2023-10-20T18:28:07.380Z,21.06
2023-10-20T18:31:12.745Z,20.64
2023-10-20T18:34:15.275Z,20.58
2023-10-20T18:37:17.903Z,20.63
2023-10-20T18:40:20.590Z,20.64
2023-10-20T18:43:23.211Z,20.57
2023-10-20T18:46:27.563Z,20.61
2023-10-20T18:49:30.364Z,20.42
2023-10-20T18:52:33.087Z,20.41
2023-10-20T18:55:35.777Z,20.10
2023-10-20T18:58:38.438Z,19.85
2023-10-20T19:01:40.884Z,19.52
2023-10-20T19:04:43.788Z,19.40
2023-10-20T19:07:46.508Z,19.20
2023-10-20T19:10:49.292Z,19.06
2023-10-20T19:13:52.694Z,19.02
2023-10-20T19:16:55.484Z,18.82
2023-10-20T19:19:59.209Z,18.79
2023-10-20T19:23:03.831Z,18.76
2023-10-20T19:26:10.971Z,18.76
2023-10-20T19:29:13.349Z,18.70
2023-10-20T19:32:15.842Z,18.84
2023-10-20T19:35:18.691Z,19.01
2023-10-20T19:38:21.521Z,18.85
2023-10-20T19:41:23.912Z,18.87
2023-10-20T19:44:26.325Z,19.03
2023-10-20T19:47:28.717Z,18.92
2023-10-20T19:50:31.217Z,18.87
2023-10-20T19:53:33.650Z,18.98
2023-10-20T19:56:36.425Z,18.90
2023-10-20T19:59:39.006Z,18.70
2023-10-20T20:02:42.221Z,18.61
2023-10-20T20:05:44.854Z,18.41
2023-10-20T20:08:47.312Z,18.37
2023-10-20T20:11:49.755Z,18.14
2023-10-20T20:14:52.230Z,17.94
2023-10-20T20:17:56.479Z,17.89
2023-10-20T20:20:59.173Z,17.83
2023-10-20T20:24:01.560Z,17.71
2023-10-20T20:27:04.299Z,17.93
2023-10-20T20:30:07.390Z,18.27
2023-10-20T20:33:10.088Z,18.55
2023-10-20T20:36:12.568Z,18.48
2023-10-20T20:39:15.092Z,18.40
2023-10-20T20:42:18.092Z,18.37
2023-10-20T20:45:20.477Z,18.37
2023-10-20T20:48:23.026Z,18.21
2023-10-20T20:51:25.582Z,18.14
2023-10-20T20:54:27.984Z,18.32
2023-10-20T20:57:30.333Z,18.33
2023-10-20T21:00:32.966Z,18.28
2023-10-20T21:03:35.909Z,18.37
2023-10-20T21:06:38.486Z,18.53
2023-10-20T21:09:40.932Z,18.52
2023-10-20T21:12:43.311Z,18.33
2023-10-20T21:15:45.733Z,18.21
2023-10-20T21:18:49.319Z,18.09
2023-10-20T21:21:51.757Z,17.93
2023-10-20T21:25:00.448Z,18.03
2023-10-20T21:28:04.451Z,18.10
2023-10-20T21:31:07.019Z,18.35
2023-10-20T21:34:09.403Z,18.67
2023-10-20T21:37:11.812Z,18.53
2023-10-20T21:40:14.181Z,18.35
2023-10-20T21:43:16.642Z,18.25
2023-10-20T21:46:19.192Z,17.95
2023-10-20T21:49:21.536Z,17.76
2023-10-20T21:52:23.862Z,17.96
2023-10-20T21:55:26.293Z,18.00
2023-10-20T21:58:29.042Z,17.98
2023-10-20T22:01:31.482Z,18.29
2023-10-20T22:04:33.925Z,18.39
2023-10-20T22:07:38.454Z,18.43
2023-10-20T22:10:42.271Z,18.20
2023-10-20T22:13:44.750Z,18.04
2023-10-20T22:16:47.176Z,18.08
2023-10-20T22:19:49.641Z,18.11
2023-10-20T22:22:52.018Z,18.21
2023-10-20T22:25:54.846Z,18.18
2023-10-20T22:28:57.347Z,17.96
2023-10-20T22:32:00.065Z,17.90
2023-10-20T22:35:03.156Z,17.68
2023-10-20T22:38:06.298Z,17.49
2023-10-20T22:41:08.639Z,17.41
2023-10-20T22:44:11.590Z,17.32
2023-10-20T22:47:13.985Z,17.05
2023-10-20T22:50:19.439Z,17.14
2023-10-20T22:53:21.987Z,17.10
2023-10-20T22:56:24.396Z,17.06
2023-10-20T22:59:26.899Z,17.03
2023-10-20T23:02:29.322Z,17.03
2023-10-20T23:05:31.732Z,16.89
2023-10-20T23:08:34.443Z,16.91
2023-10-20T23:11:36.865Z,16.94
2023-10-20T23:14:39.247Z,17.01
2023-10-20T23:17:41.681Z,16.98
2023-10-20T23:20:44.153Z,17.13
2023-10-20T23:23:46.646Z,17.03
2023-10-20T23:26:48.999Z,17.11
2023-10-20T23:29:51.438Z,17.12
2023-10-20T23:32:53.926Z,17.02
2023-10-20T23:35:57.700Z,17.07
2023-10-20T23:39:00.091Z,17.28
2023-10-20T23:42:02.550Z,17.31
2023-10-20T23:45:05.680Z,17.31
2023-10-20T23:48:08.106Z,17.36
2023-10-20T23:51:10.592Z,17.42
2023-10-20T23:54:13.188Z,17.41
2023-10-20T23:57:15.607Z,17.42
